createdAt,value
2023-01-30T00:00:53.330Z,-10.5
2023-01-30T00:01:53.289Z,-10
2023-01-30T00:02:53.261Z,-10.5
2023-01-30T00:03:53.261Z,-9.83
2023-01-30T00:04:53.317Z,-10.67
2023-01-30T00:05:53.263Z,-10
2023-01-30T00:06:53.261Z,-10.67
2023-01-30T00:07:53.307Z,-9.72
2023-01-30T00:08:53.268Z,-9.56
2023-01-30T00:09:53.259Z,-9.22
2023-01-30T00:10:53.261Z,-9.22
2023-01-30T00:11:53.258Z,-9.22
2023-01-30T00:12:53.284Z,-9.39
2023-01-30T00:13:53.266Z,-9.22
2023-01-30T00:14:53.268Z,-9.56
2023-01-30T00:15:53.255Z,-10
2023-01-30T00:16:53.261Z,-9.83
2023-01-30T00:17:53.261Z,-9.83
2023-01-30T00:18:53.276Z,-9.56
2023-01-30T00:19:53.274Z,-9.39
2023-01-30T00:20:53.268Z,-9.06
2023-01-30T00:21:53.263Z,-8.89
2023-01-30T00:23:00.669Z,-8.28
2023-01-30T00:23:53.267Z,-8.44
2023-01-30T00:24:53.385Z,-8.11
2023-01-30T00:25:53.270Z,-8.61
2023-01-30T00:26:53.277Z,-8.61
2023-01-30T00:27:53.287Z,-8.61
2023-01-30T00:28:53.269Z,-8.44
2023-01-30T00:30:53.374Z,-8.78
2023-01-30T00:31:53.308Z,-8.78
2023-01-30T00:32:53.273Z,-8.89
2023-01-30T00:33:53.284Z,-8.89
2023-01-30T00:34:53.284Z,-9.39
2023-01-30T00:35:53.284Z,-9.72
2023-01-30T00:37:06.376Z,-9.56
2023-01-30T00:37:53.278Z,-9.83
2023-01-30T00:38:53.290Z,-10.33
2023-01-30T00:39:53.294Z,-10
2023-01-30T00:40:53.298Z,-9.72
2023-01-30T00:41:53.280Z,-9.39
2023-01-30T00:42:53.295Z,-9.56
2023-01-30T00:43:53.294Z,-9.06
2023-01-30T00:44:53.283Z,-9.22
2023-01-30T00:45:53.363Z,-9.39
2023-01-30T00:46:53.284Z,-9.72
2023-01-30T00:47:53.286Z,-9.39
2023-01-30T00:48:53.291Z,-9.72
2023-01-30T00:49:53.306Z,-10.33
2023-01-30T00:50:53.297Z,-10
2023-01-30T00:51:53.282Z,-10.67
2023-01-30T00:52:53.291Z,-10.17
2023-01-30T00:53:53.304Z,-10.33
2023-01-30T00:54:53.308Z,-10.17
2023-01-30T00:55:53.294Z,-10.5
2023-01-30T00:56:53.287Z,-10.17
2023-01-30T00:57:53.294Z,-10.67
2023-01-30T00:58:53.319Z,-10.83
2023-01-30T00:59:53.309Z,-10.5
2023-01-30T01:00:53.343Z,-10.33
2023-01-30T01:01:53.332Z,-10
2023-01-30T01:02:53.325Z,-9.72
2023-01-30T01:03:53.308Z,-9.83
2023-01-30T01:04:53.304Z,-10
2023-01-30T01:05:53.319Z,-10
2023-01-30T01:06:53.312Z,-10.33
2023-01-30T01:07:53.316Z,-10.33
2023-01-30T01:08:53.322Z,-10
2023-01-30T01:09:53.310Z,-10.5
2023-01-30T01:10:53.313Z,-10
2023-01-30T01:11:53.330Z,-9.39
2023-01-30T01:12:53.326Z,-9.56
2023-01-30T01:13:53.309Z,-9.72
2023-01-30T01:14:53.316Z,-9.22
2023-01-30T01:15:53.309Z,-9.72
2023-01-30T01:16:53.314Z,-9.72
2023-01-30T01:17:53.323Z,-9.83
2023-01-30T01:18:53.316Z,-9.72
2023-01-30T01:19:53.313Z,-10.17
2023-01-30T01:20:53.322Z,-10
2023-01-30T01:21:53.317Z,-10.17
2023-01-30T01:22:53.335Z,-9.83
2023-01-30T01:23:53.358Z,-10
2023-01-30T01:24:53.323Z,-10
2023-01-30T01:25:53.331Z,-10.5
2023-01-30T01:26:53.321Z,-11
2023-01-30T01:27:53.328Z,-10.5
2023-01-30T01:28:53.349Z,-10.83
2023-01-30T01:29:53.336Z,-11
2023-01-30T01:30:53.361Z,-11
2023-01-30T01:31:53.425Z,-11
2023-01-30T01:32:53.349Z,-10.83
2023-01-30T01:33:53.336Z,-10.83
2023-01-30T01:34:53.328Z,-10.33
2023-01-30T01:35:53.325Z,-10.33
2023-01-30T01:36:54.148Z,-10.33
2023-01-30T01:37:53.334Z,-10.33
2023-01-30T01:38:53.343Z,-10.5
2023-01-30T01:39:53.343Z,-10.83
2023-01-30T01:40:53.329Z,-10.33
2023-01-30T01:41:53.340Z,-10.5
2023-01-30T01:42:53.351Z,-10.5
2023-01-30T01:43:53.389Z,-10.67
2023-01-30T01:44:53.349Z,-10.83
2023-01-30T01:45:53.466Z,-10.83
2023-01-30T01:46:53.339Z,-11
2023-01-30T01:47:53.327Z,-10.67
2023-01-30T01:48:53.350Z,-10.83
2023-01-30T01:49:53.345Z,-11.17
2023-01-30T01:50:53.347Z,-10.83
2023-01-30T01:51:53.333Z,-11.33
2023-01-30T01:52:53.345Z,-10.83
2023-01-30T01:53:53.335Z,-10.83
2023-01-30T01:54:53.336Z,-10.83
2023-01-30T01:55:53.390Z,-10.83
2023-01-30T01:56:53.339Z,-11.33
2023-01-30T01:57:53.348Z,-11
2023-01-30T01:58:53.370Z,-10.67
2023-01-30T01:59:53.346Z,-10.5
2023-01-30T02:00:53.374Z,-10.33
2023-01-30T02:01:53.373Z,-10.5
2023-01-30T02:02:53.472Z,-10.5
2023-01-30T02:03:53.344Z,-10.67
2023-01-30T02:04:53.359Z,-10.83
2023-01-30T02:05:53.363Z,-10.5
2023-01-30T02:06:53.342Z,-10.83
2023-01-30T02:07:53.339Z,-10.67
2023-01-30T02:08:53.358Z,-10.33
2023-01-30T02:09:53.352Z,-10.33
2023-01-30T02:10:53.365Z,-10.83
2023-01-30T02:11:53.346Z,-10.5
2023-01-30T02:12:53.360Z,-10.83
2023-01-30T02:13:53.343Z,-10.5
2023-01-30T02:14:53.355Z,-10.33
2023-01-30T02:15:53.359Z,-10.5
2023-01-30T02:16:53.374Z,-10.83
2023-01-30T02:17:53.479Z,-10.17
2023-01-30T02:18:53.353Z,-9.83
2023-01-30T02:19:53.352Z,-9.83
2023-01-30T02:20:53.343Z,-9.83
2023-01-30T02:21:53.361Z,-9.83
2023-01-30T02:22:53.355Z,-10.5
2023-01-30T02:23:53.353Z,-10.67
2023-01-30T02:24:53.360Z,-10.5
2023-01-30T02:25:54.500Z,-11
2023-01-30T02:26:53.348Z,-10.67
2023-01-30T02:27:53.351Z,-11
2023-01-30T02:28:53.358Z,-11
2023-01-30T02:29:53.341Z,-10.5
2023-01-30T02:30:53.444Z,-10.17
2023-01-30T02:31:53.355Z,-9.72
2023-01-30T02:32:53.366Z,-10
2023-01-30T02:33:53.366Z,-10.33
2023-01-30T02:34:53.356Z,-10.33
2023-01-30T02:35:53.361Z,-10.83
2023-01-30T02:36:53.360Z,-11.17
2023-01-30T02:37:53.352Z,-11
2023-01-30T02:38:53.353Z,-11
2023-01-30T02:39:53.351Z,-11
2023-01-30T02:40:53.361Z,-11.33
2023-01-30T02:41:53.350Z,-11.5
2023-01-30T02:42:53.360Z,-11.67
2023-01-30T02:43:53.368Z,-11.5
2023-01-30T02:44:53.360Z,-11.83
2023-01-30T02:45:53.397Z,-11.5
2023-01-30T02:46:53.356Z,-11.83
2023-01-30T02:47:53.383Z,-11.33
2023-01-30T02:48:53.369Z,-11.33
2023-01-30T02:49:53.357Z,-11.67
2023-01-30T02:50:53.362Z,-11.33
2023-01-30T02:51:53.353Z,-11.67
2023-01-30T02:52:53.362Z,-11.33
2023-01-30T02:53:53.377Z,-11.5
2023-01-30T02:54:53.356Z,-11.83
2023-01-30T02:55:53.368Z,-11.33
2023-01-30T02:56:53.376Z,-11.5
2023-01-30T02:57:53.369Z,-11.83
2023-01-30T02:58:53.379Z,-11.67
2023-01-30T02:59:53.362Z,-11.83
2023-01-30T03:00:53.367Z,-12
2023-01-30T03:01:53.368Z,-12.17
2023-01-30T03:02:53.417Z,-11.83
2023-01-30T03:03:53.374Z,-12
2023-01-30T03:04:53.378Z,-12.17
2023-01-30T03:05:53.383Z,-12
2023-01-30T03:06:53.373Z,-11.67
2023-01-30T03:07:53.365Z,-11.67
2023-01-30T03:08:53.369Z,-11
2023-01-30T03:09:53.376Z,-10.83
2023-01-30T03:10:53.448Z,-10.83
2023-01-30T03:11:53.375Z,-11
2023-01-30T03:12:53.380Z,-11.17
2023-01-30T03:13:53.373Z,-11.17
2023-01-30T03:14:53.387Z,-11.5
2023-01-30T03:15:53.508Z,-11.67
2023-01-30T03:16:53.384Z,-11.33
2023-01-30T03:17:53.391Z,-11
2023-01-30T03:18:53.388Z,-10.83
2023-01-30T03:19:53.384Z,-11
2023-01-30T03:20:53.396Z,-11.5
2023-01-30T03:21:53.396Z,-11
2023-01-30T03:22:53.396Z,-11.17
2023-01-30T03:23:53.412Z,-10.83
2023-01-30T03:24:53.386Z,-10.83
2023-01-30T03:25:53.392Z,-11.17
2023-01-30T03:26:53.382Z,-10.83
2023-01-30T03:27:53.383Z,-11.33
2023-01-30T03:28:53.399Z,-11
2023-01-30T03:29:53.386Z,-10.83
2023-01-30T03:30:53.482Z,-10.67
2023-01-30T03:31:53.453Z,-10.67
2023-01-30T03:32:53.393Z,-11
2023-01-30T03:33:53.391Z,-11
2023-01-30T03:34:53.392Z,-11.33
2023-01-30T03:35:53.404Z,-11.17
2023-01-30T03:36:53.397Z,-11.17
2023-01-30T03:37:53.391Z,-10.83
2023-01-30T03:38:53.409Z,-10.83
2023-01-30T03:39:53.398Z,-10.5
2023-01-30T03:40:53.397Z,-10.67
2023-01-30T03:41:53.406Z,-10.33
2023-01-30T03:42:53.411Z,-10.67
2023-01-30T03:43:53.394Z,-10.67
2023-01-30T03:44:53.432Z,-11
2023-01-30T03:45:53.445Z,-10.83
2023-01-30T03:46:53.410Z,-10.5
2023-01-30T03:47:53.397Z,-10.67
2023-01-30T03:48:53.404Z,-10.83
2023-01-30T03:49:53.401Z,-11
2023-01-30T03:50:53.403Z,-11
2023-01-30T03:51:53.403Z,-10.5
2023-01-30T03:52:53.425Z,-10.67
2023-01-30T03:53:53.423Z,-10.83
2023-01-30T03:54:53.443Z,-10.5
2023-01-30T03:55:53.425Z,-10.67
2023-01-30T03:56:53.400Z,-11
2023-01-30T03:57:53.404Z,-11
2023-01-30T03:58:53.413Z,-11.17
2023-01-30T03:59:53.400Z,-11.17
2023-01-30T04:00:54.862Z,-11.67
2023-01-30T04:01:53.406Z,-11.17
2023-01-30T04:02:53.408Z,-11.5
2023-01-30T04:03:53.426Z,-11.5
2023-01-30T04:04:53.410Z,-11.5
2023-01-30T04:05:53.422Z,-12
2023-01-30T04:06:53.407Z,-12.17
2023-01-30T04:07:53.396Z,-11.67
2023-01-30T04:08:53.413Z,-11.5
2023-01-30T04:09:53.417Z,-11.33
2023-01-30T04:10:53.424Z,-11.33
2023-01-30T04:11:53.429Z,-11.17
2023-01-30T04:12:53.412Z,-11.5
2023-01-30T04:13:53.435Z,-11.5
2023-01-30T04:14:53.417Z,-11
2023-01-30T04:15:53.421Z,-10.17
2023-01-30T04:16:53.499Z,-10.17
2023-01-30T04:17:53.435Z,-10.5
2023-01-30T04:18:53.422Z,-10.83
2023-01-30T04:19:53.418Z,-10.5
2023-01-30T04:20:53.436Z,-10.67
2023-01-30T04:21:53.429Z,-10.67
2023-01-30T04:22:53.434Z,-10.83
2023-01-30T04:23:53.427Z,-11
2023-01-30T04:24:53.442Z,-11
2023-01-30T04:25:53.453Z,-11
2023-01-30T04:26:53.429Z,-11.17
2023-01-30T04:27:53.461Z,-11
2023-01-30T04:28:53.432Z,-11.33
2023-01-30T04:29:53.452Z,-10.67
2023-01-30T04:30:53.464Z,-11
2023-01-30T04:31:53.456Z,-11
2023-01-30T04:32:53.466Z,-11
2023-01-30T04:33:53.531Z,-11
2023-01-30T04:34:53.434Z,-10.83
2023-01-30T04:35:53.437Z,-11.33
2023-01-30T04:36:53.446Z,-11
2023-01-30T04:37:53.434Z,-11.33
2023-01-30T04:38:53.443Z,-11.33
2023-01-30T04:39:53.439Z,-11.17
2023-01-30T04:40:53.458Z,-11.17
2023-01-30T04:41:53.447Z,-11.5
2023-01-30T04:42:53.447Z,-11.17
2023-01-30T04:43:53.459Z,-11.33
2023-01-30T04:44:53.460Z,-11.17
2023-01-30T04:45:53.444Z,-11
2023-01-30T04:46:53.475Z,-11.33
2023-01-30T04:47:53.514Z,-11.33
2023-01-30T04:48:53.466Z,-11
2023-01-30T04:49:53.461Z,-11
2023-01-30T04:50:53.451Z,-10.83
2023-01-30T04:51:53.455Z,-11.17
2023-01-30T04:52:53.450Z,-10.83
2023-01-30T04:53:53.454Z,-11.17
2023-01-30T04:54:53.470Z,-11
2023-01-30T04:55:53.455Z,-11.17
2023-01-30T04:56:53.450Z,-11
2023-01-30T04:57:53.449Z,-11.17
2023-01-30T04:58:53.462Z,-11.33
2023-01-30T04:59:53.463Z,-11.17
2023-01-30T05:00:53.524Z,-11.33
2023-01-30T05:01:53.504Z,-11.67
2023-01-30T05:02:53.464Z,-12.67
2023-01-30T05:03:53.470Z,-12.67
2023-01-30T05:04:53.495Z,-12
2023-01-30T05:05:53.478Z,-12
2023-01-30T05:06:53.466Z,-12
2023-01-30T05:07:53.465Z,-12
2023-01-30T05:08:53.466Z,-12.5
2023-01-30T05:09:53.469Z,-12
2023-01-30T05:10:53.495Z,-12.17
2023-01-30T05:11:53.464Z,-12.33
2023-01-30T05:12:53.488Z,-12
2023-01-30T05:13:53.475Z,-12.17
2023-01-30T05:14:53.501Z,-12.17
2023-01-30T05:15:53.483Z,-11.67
2023-01-30T05:16:53.511Z,-11.67
2023-01-30T05:17:53.477Z,-11.5
2023-01-30T05:18:53.484Z,-11.33
2023-01-30T05:19:53.488Z,-11.33
2023-01-30T05:20:53.522Z,-11.5
2023-01-30T05:21:53.479Z,-11.33
2023-01-30T05:22:53.481Z,-11.17
2023-01-30T05:23:53.512Z,-11
2023-01-30T05:24:53.479Z,-10.83
2023-01-30T05:25:53.494Z,-11
2023-01-30T05:26:53.487Z,-10.83
2023-01-30T05:27:53.507Z,-10.83
2023-01-30T05:28:53.501Z,-10.83
2023-01-30T05:29:53.515Z,-10.83
2023-01-30T05:30:53.562Z,-10.67
2023-01-30T05:31:53.491Z,-10.33
2023-01-30T05:32:53.490Z,-10.33
2023-01-30T05:33:53.637Z,-10.5
2023-01-30T05:34:53.487Z,-10.83
2023-01-30T05:35:53.477Z,-11
2023-01-30T05:36:53.538Z,-10.5
2023-01-30T05:37:53.490Z,-10.83
2023-01-30T05:38:53.493Z,-10.67
2023-01-30T05:39:53.496Z,-11
2023-01-30T05:40:53.494Z,-10.83
2023-01-30T05:41:53.513Z,-10.83
2023-01-30T05:42:53.507Z,-11
2023-01-30T05:43:53.507Z,-10.5
2023-01-30T05:44:53.495Z,-10.67
2023-01-30T05:45:53.508Z,-10.83
2023-01-30T05:46:53.527Z,-10.83
2023-01-30T05:47:54.861Z,-11.33
2023-01-30T05:48:53.510Z,-10.67
2023-01-30T05:49:53.511Z,-10.83
2023-01-30T05:50:53.517Z,-11
2023-01-30T05:51:53.517Z,-11
2023-01-30T05:52:53.525Z,-11.33
2023-01-30T05:53:53.553Z,-11.83
2023-01-30T05:54:53.531Z,-11.33
2023-01-30T05:55:53.507Z,-11.17
2023-01-30T05:56:53.525Z,-11.33
2023-01-30T05:57:53.519Z,-11
2023-01-30T05:58:53.515Z,-11.67
2023-01-30T05:59:53.510Z,-11.33
2023-01-30T06:00:53.544Z,-11
2023-01-30T06:01:53.515Z,-11
2023-01-30T06:02:53.553Z,-10.67
2023-01-30T06:03:53.563Z,-10.33
2023-01-30T06:04:53.538Z,-10.67
2023-01-30T06:05:53.524Z,-10.33
2023-01-30T06:06:53.534Z,-10.33
2023-01-30T06:07:53.526Z,-10.83
2023-01-30T06:08:53.546Z,-10
2023-01-30T06:09:53.538Z,-10.17
2023-01-30T06:10:53.526Z,-10
2023-01-30T06:11:53.527Z,-9.83
2023-01-30T06:12:53.528Z,-10.33
2023-01-30T06:13:53.528Z,-10.17
2023-01-30T06:14:53.531Z,-10.33
2023-01-30T06:15:53.559Z,-10.17
2023-01-30T06:16:53.588Z,-10
2023-01-30T06:17:53.543Z,-10
2023-01-30T06:18:53.524Z,-10.17
2023-01-30T06:19:53.550Z,-10
2023-01-30T06:20:53.536Z,-10.33
2023-01-30T06:21:53.544Z,-10
2023-01-30T06:22:53.535Z,-10.17
2023-01-30T06:23:53.537Z,-10.17
2023-01-30T06:24:53.580Z,-10.67
2023-01-30T06:25:53.531Z,-10.17
2023-01-30T06:26:53.639Z,-9.83
2023-01-30T06:27:53.527Z,-9.83
2023-01-30T06:28:53.544Z,-9.56
2023-01-30T06:29:53.555Z,-9.67
2023-01-30T06:30:53.665Z,-9.39
2023-01-30T06:31:53.552Z,-9.39
2023-01-30T06:32:53.543Z,-10
2023-01-30T06:33:53.540Z,-9.83
2023-01-30T06:34:53.548Z,-9.83
2023-01-30T06:35:53.551Z,-9.83
2023-01-30T06:36:53.556Z,-10.17
2023-01-30T06:37:53.551Z,-10.5
2023-01-30T06:38:53.552Z,-10.17
2023-01-30T06:39:53.546Z,-10.33
2023-01-30T06:40:53.587Z,-10.5
2023-01-30T06:41:53.566Z,-10
2023-01-30T06:42:53.560Z,-9.83
2023-01-30T06:43:53.552Z,-10.5
2023-01-30T06:44:53.550Z,-10.5
2023-01-30T06:45:53.614Z,-10.67
2023-01-30T06:46:53.561Z,-10.67
2023-01-30T06:47:53.580Z,-10.83
2023-01-30T06:48:53.559Z,-10.67
2023-01-30T06:49:53.571Z,-11
2023-01-30T06:50:53.565Z,-10.83
2023-01-30T06:51:53.565Z,-10.83
2023-01-30T06:52:53.580Z,-10.5
2023-01-30T06:53:53.576Z,-10.5
2023-01-30T06:54:53.573Z,-10.33
2023-01-30T06:55:53.566Z,-10.17
2023-01-30T06:56:53.585Z,-9.72
2023-01-30T06:57:53.580Z,-9.83
2023-01-30T06:58:53.582Z,-9.83
2023-01-30T06:59:53.579Z,-10.17
2023-01-30T07:00:53.559Z,-10.5
2023-01-30T07:01:53.597Z,-10
2023-01-30T07:02:53.569Z,-9.72
2023-01-30T07:03:53.630Z,-9.56
2023-01-30T07:04:53.592Z,-9.72
2023-01-30T07:05:53.562Z,-10
2023-01-30T07:06:53.591Z,-10.5
2023-01-30T07:07:53.581Z,-10
2023-01-30T07:08:53.582Z,-10.5
2023-01-30T07:10:06.700Z,-10.33
2023-01-30T07:10:53.569Z,-10.33
2023-01-30T07:11:53.583Z,-10
2023-01-30T07:12:53.628Z,-10.5
2023-01-30T07:13:53.571Z,-10.17
2023-01-30T07:14:53.581Z,-10
2023-01-30T07:15:53.620Z,-9.83
2023-01-30T07:16:53.611Z,-10.67
2023-01-30T07:17:53.601Z,-10.67
2023-01-30T07:18:53.580Z,-9.83
2023-01-30T07:19:53.586Z,-10
2023-01-30T07:20:53.605Z,-9.83
2023-01-30T07:21:53.580Z,-9.83
2023-01-30T07:22:53.593Z,-9.39
2023-01-30T07:23:53.579Z,-9.39
2023-01-30T07:24:53.599Z,-9.56
2023-01-30T07:25:53.601Z,-9.39
2023-01-30T07:26:53.629Z,-9.72
2023-01-30T07:27:53.578Z,-9.33
2023-01-30T07:28:53.612Z,-9.39
2023-01-30T07:29:53.596Z,-9.06
2023-01-30T07:30:53.633Z,-8.89
2023-01-30T07:31:53.636Z,-9.44
2023-01-30T07:32:53.591Z,-8.78
2023-01-30T07:33:53.589Z,-9.11
2023-01-30T07:34:53.599Z,-9.11
2023-01-30T07:35:53.622Z,-9.28
2023-01-30T07:36:53.589Z,-9.39
2023-01-30T07:37:53.584Z,-8.94
2023-01-30T07:38:53.589Z,-8.78
2023-01-30T07:39:53.592Z,-8.67
2023-01-30T07:40:53.582Z,-8.94
2023-01-30T07:41:55.943Z,-8.94
2023-01-30T07:42:53.603Z,-9.22
2023-01-30T07:43:53.593Z,-9.39
2023-01-30T07:44:53.626Z,-9.39
2023-01-30T07:45:53.612Z,-9.22
2023-01-30T07:46:53.628Z,-9.72
2023-01-30T07:47:53.597Z,-9.33
2023-01-30T07:48:53.591Z,-8.89
2023-01-30T07:49:53.592Z,-9.17
2023-01-30T07:50:53.633Z,-9.28
2023-01-30T07:51:53.603Z,-9.22
2023-01-30T07:52:53.615Z,-9.06
2023-01-30T07:53:53.601Z,-9.39
2023-01-30T07:54:53.606Z,-9.39
2023-01-30T07:55:53.605Z,-9.56
2023-01-30T07:56:53.626Z,-9.72
2023-01-30T07:57:53.589Z,-9.56
2023-01-30T07:58:53.616Z,-9.39
2023-01-30T07:59:53.596Z,-10.33
2023-01-30T08:00:53.665Z,-9.83
2023-01-30T08:01:53.625Z,-10.5
2023-01-30T08:02:53.629Z,-9.83
2023-01-30T08:03:53.612Z,-10.17
2023-01-30T08:04:53.706Z,-10.17
2023-01-30T08:05:53.626Z,-9.83
2023-01-30T08:06:53.630Z,-9.72
2023-01-30T08:07:53.659Z,-9.39
2023-01-30T08:08:53.604Z,-9.06
2023-01-30T08:09:53.618Z,-9.22
2023-01-30T08:10:53.614Z,-8.89
2023-01-30T08:11:53.612Z,-9.06
2023-01-30T08:12:53.616Z,-8.78
2023-01-30T08:13:53.613Z,-8.83
2023-01-30T08:14:53.624Z,-8.56
2023-01-30T08:15:53.613Z,-8.72
2023-01-30T08:16:53.695Z,-8.72
2023-01-30T08:17:53.610Z,-8.72
2023-01-30T08:18:53.615Z,-9.11
2023-01-30T08:19:53.615Z,-8.67
2023-01-30T08:20:53.607Z,-8.89
2023-01-30T08:21:53.617Z,-8.61
2023-01-30T08:22:53.618Z,-8.39
2023-01-30T08:23:53.636Z,-8.67
2023-01-30T08:24:53.627Z,-8.61
2023-01-30T08:25:53.645Z,-8.56
2023-01-30T08:26:53.632Z,-8.78
2023-01-30T08:27:53.671Z,-8.89
2023-01-30T08:28:53.645Z,-9.22
2023-01-30T08:29:53.623Z,-9.06
2023-01-30T08:30:53.721Z,-9.06
2023-01-30T08:31:53.626Z,-8.56
2023-01-30T08:32:53.656Z,-8.61
2023-01-30T08:33:53.621Z,-8.11
2023-01-30T08:34:53.636Z,-7.94
2023-01-30T08:35:53.650Z,-8.39
2023-01-30T08:36:53.645Z,-8.61
2023-01-30T08:37:53.631Z,-8.89
2023-01-30T08:38:53.642Z,-8.89
2023-01-30T08:39:53.646Z,-8.61
2023-01-30T08:40:53.667Z,-8.44
2023-01-30T08:41:53.652Z,-8.61
2023-01-30T08:42:53.646Z,-8.61
2023-01-30T08:43:53.642Z,-8.78
2023-01-30T08:44:53.654Z,-8.28
2023-01-30T08:45:53.655Z,-8.11
2023-01-30T08:46:53.654Z,-8.61
2023-01-30T08:47:53.645Z,-7.94
2023-01-30T08:48:53.709Z,-7.61
2023-01-30T08:49:53.648Z,-7.94
2023-01-30T08:50:53.656Z,-8.44
2023-01-30T08:51:53.669Z,-7.94
2023-01-30T08:52:53.686Z,-7.83
2023-01-30T08:53:53.647Z,-7.67
2023-01-30T08:54:53.673Z,-8.06
2023-01-30T08:55:53.719Z,-7.33
2023-01-30T08:56:53.658Z,-6.83
2023-01-30T08:57:53.659Z,-7.83
2023-01-30T08:58:53.673Z,-7.94
2023-01-30T08:59:53.669Z,-7.94
2023-01-30T09:00:53.697Z,-7.44
2023-01-30T09:01:53.663Z,-7.44
2023-01-30T09:02:53.683Z,-7.33
2023-01-30T09:03:53.667Z,-7.17
2023-01-30T09:04:53.768Z,-7.33
2023-01-30T09:05:53.672Z,-7.22
2023-01-30T09:06:53.699Z,-7.11
2023-01-30T09:07:53.685Z,-6.94
2023-01-30T09:08:53.690Z,-7.17
2023-01-30T09:09:53.729Z,-6.44
2023-01-30T09:10:53.696Z,-6.61
2023-01-30T09:11:53.678Z,-6.83
2023-01-30T09:12:53.693Z,-6.78
2023-01-30T09:13:53.707Z,-7.06
2023-01-30T09:14:53.676Z,-6.33
2023-01-30T09:15:53.684Z,-6
2023-01-30T09:16:53.753Z,-5.44
2023-01-30T09:17:53.707Z,-5.83
2023-01-30T09:18:53.732Z,-5.89
2023-01-30T09:19:53.690Z,-6.44
2023-01-30T09:20:53.917Z,-5.83
2023-01-30T09:21:53.714Z,-5.56
2023-01-30T09:22:53.688Z,-5.56
2023-01-30T09:23:53.694Z,-5.56
2023-01-30T09:24:53.686Z,-6.11
2023-01-30T09:25:53.699Z,-6.39
2023-01-30T09:26:53.696Z,-6.72
2023-01-30T09:27:53.697Z,-7.11
2023-01-30T09:28:53.710Z,-6.56
2023-01-30T09:29:53.716Z,-6.22
2023-01-30T09:30:53.906Z,-6.11
2023-01-30T09:31:53.721Z,-6.06
2023-01-30T09:32:53.708Z,-6.11
2023-01-30T09:33:53.726Z,-6.39
2023-01-30T09:34:53.723Z,-6.72
2023-01-30T09:35:53.728Z,-7.17
2023-01-30T09:36:53.731Z,-7.06
2023-01-30T09:37:53.715Z,-6.89
2023-01-30T09:38:53.732Z,-6.61
2023-01-30T09:39:53.728Z,-6.72
2023-01-30T09:40:53.724Z,-7.06
2023-01-30T09:41:53.717Z,-6.89
2023-01-30T09:42:53.719Z,-6.89
2023-01-30T09:43:53.716Z,-6.61
2023-01-30T09:44:53.743Z,-6.72
2023-01-30T09:45:53.740Z,-6.28
2023-01-30T09:46:53.751Z,-6.28
2023-01-30T09:47:53.729Z,-6.11
2023-01-30T09:48:53.738Z,-5.72
2023-01-30T09:49:53.736Z,-5.61
2023-01-30T09:50:53.751Z,-5.83
2023-01-30T09:51:53.740Z,-5.06
2023-01-30T09:52:53.762Z,-4.94
2023-01-30T09:53:53.738Z,-4.78
2023-01-30T09:54:53.738Z,-4.5
2023-01-30T09:55:53.741Z,-4.33
2023-01-30T09:56:53.738Z,-4.17
2023-01-30T09:57:53.728Z,-3.72
2023-01-30T09:58:53.744Z,-3.72
2023-01-30T09:59:53.758Z,-3.44
2023-01-30T10:00:53.744Z,-3.44
2023-01-30T10:01:53.745Z,-3.17
2023-01-30T10:02:53.765Z,-3.28
2023-01-30T10:03:53.752Z,-3.28
2023-01-30T10:05:01.151Z,-2.72
2023-01-30T10:05:53.766Z,-3
2023-01-30T10:06:53.758Z,-3.44
2023-01-30T10:07:53.828Z,-3.44
2023-01-30T10:08:53.801Z,-2.89
2023-01-30T10:09:53.768Z,-2.89
2023-01-30T10:11:08.130Z,-2.11
2023-01-30T10:11:53.769Z,-2.89
2023-01-30T10:12:53.762Z,-3.56
2023-01-30T10:13:53.764Z,-3.28
2023-01-30T10:14:53.749Z,-2.56
2023-01-30T10:15:53.776Z,-3.72
2023-01-30T10:16:53.767Z,-4.22
2023-01-30T10:17:53.796Z,-4.61
2023-01-30T10:18:53.755Z,-4.61
2023-01-30T10:19:53.770Z,-4.94
2023-01-30T10:20:53.759Z,-5.06
2023-01-30T10:21:53.760Z,-5.22
2023-01-30T10:22:53.767Z,-4.22
2023-01-30T10:23:53.767Z,-4.22
2023-01-30T10:24:53.839Z,-4.06
2023-01-30T10:25:53.762Z,-4.33
2023-01-30T10:26:53.769Z,-4.33
2023-01-30T10:27:53.775Z,-4.33
2023-01-30T10:29:05.343Z,-4.33
2023-01-30T10:29:53.786Z,-4.06
2023-01-30T10:30:53.892Z,-3.89
2023-01-30T10:31:53.826Z,-3.89
2023-01-30T10:32:53.778Z,-3.06
2023-01-30T10:33:53.788Z,-3.28
2023-01-30T10:34:53.791Z,-3.61
2023-01-30T10:35:53.782Z,-4.33
2023-01-30T10:36:53.785Z,-4.5
2023-01-30T10:37:53.828Z,-4.94
2023-01-30T10:38:53.783Z,-4.78
2023-01-30T10:39:55.487Z,-4.94
2023-01-30T10:40:53.807Z,-4.22
2023-01-30T10:41:53.796Z,-3.28
2023-01-30T10:42:53.787Z,-3.44
2023-01-30T10:43:53.797Z,-4.33
2023-01-30T10:44:53.780Z,-5.06
2023-01-30T10:45:53.796Z,-4.78
2023-01-30T10:46:53.855Z,-4.61
2023-01-30T10:47:53.811Z,-4.5
2023-01-30T10:48:53.820Z,-4.33
2023-01-30T10:49:53.824Z,-4.5
2023-01-30T10:50:53.806Z,-4.61
2023-01-30T10:51:53.818Z,-4.06
2023-01-30T10:52:53.813Z,-3.72
2023-01-30T10:53:53.796Z,-2.89
2023-01-30T10:54:53.811Z,-3.17
2023-01-30T10:55:53.812Z,-2.89
2023-01-30T10:56:53.847Z,-3.44
2023-01-30T10:57:53.800Z,-2.28
2023-01-30T10:58:53.822Z,-3.17
2023-01-30T10:59:53.808Z,-3.61
2023-01-30T11:00:53.815Z,-3.61
2023-01-30T11:01:53.919Z,-3.61
2023-01-30T11:02:53.841Z,-3.72
2023-01-30T11:03:53.819Z,-3.61
2023-01-30T11:04:53.825Z,-3.28
2023-01-30T11:05:53.812Z,-2.61
2023-01-30T11:06:53.822Z,-3.06
2023-01-30T11:07:53.832Z,-3.89
2023-01-30T11:08:53.824Z,-4.33
2023-01-30T11:09:53.822Z,-4.33
2023-01-30T11:10:53.847Z,-4.5
2023-01-30T11:11:53.835Z,-4.06
2023-01-30T11:12:53.849Z,-3.61
2023-01-30T11:13:53.819Z,-3.28
2023-01-30T11:14:53.850Z,-3.28
2023-01-30T11:15:53.921Z,-3.28
2023-01-30T11:16:53.827Z,-3.61
2023-01-30T11:17:55.665Z,-3.89
2023-01-30T11:19:53.834Z,-2.72
2023-01-30T11:20:53.827Z,-2.28
2023-01-30T11:21:53.865Z,-2.72
2023-01-30T11:22:53.827Z,-2.17
2023-01-30T11:23:53.849Z,-2
2023-01-30T11:24:53.838Z,-2.17
2023-01-30T11:26:05.643Z,-2.17
2023-01-30T11:26:53.889Z,-2.28
2023-01-30T11:27:53.846Z,-2.17
2023-01-30T11:28:53.868Z,-1.67
2023-01-30T11:29:53.844Z,-1.44
2023-01-30T11:30:53.858Z,-1.28
2023-01-30T11:31:53.958Z,-1.11
2023-01-30T11:32:53.848Z,-1.11
2023-01-30T11:33:53.837Z,-0.56
2023-01-30T11:34:53.845Z,0.28
2023-01-30T11:35:53.848Z,0.44
2023-01-30T11:36:53.840Z,0.44
2023-01-30T11:37:53.845Z,1.33
2023-01-30T11:38:53.843Z,0
2023-01-30T11:39:53.844Z,-1.67
2023-01-30T11:40:53.862Z,-2.28
2023-01-30T11:41:53.860Z,-1.56
2023-01-30T11:42:53.853Z,-1
2023-01-30T11:43:53.852Z,-1.28
2023-01-30T11:44:55.464Z,-1.28
2023-01-30T11:45:53.904Z,-1
2023-01-30T11:46:53.879Z,-0.39
2023-01-30T11:47:57.491Z,0
2023-01-30T11:49:01.218Z,0.17
2023-01-30T11:50:01.497Z,0
2023-01-30T11:50:53.859Z,0
2023-01-30T11:51:53.875Z,0
2023-01-30T11:52:53.857Z,-0.17
2023-01-30T11:53:53.847Z,-0.39
2023-01-30T11:54:53.862Z,-0.28
2023-01-30T11:56:03.275Z,0
2023-01-30T11:56:53.854Z,0.89
2023-01-30T11:57:53.872Z,0.72
2023-01-30T11:58:53.855Z,0.89
2023-01-30T11:59:53.860Z,0.17
2023-01-30T12:00:53.888Z,-0.17
2023-01-30T12:01:53.886Z,0
2023-01-30T12:02:53.919Z,0.17
2023-01-30T12:03:53.863Z,0
2023-01-30T12:04:53.909Z,-0.83
2023-01-30T12:05:53.875Z,-0.56
2023-01-30T12:06:53.879Z,-0.39
2023-01-30T12:07:53.881Z,-0.39
2023-01-30T12:08:53.877Z,0
2023-01-30T12:09:53.887Z,0.72
2023-01-30T12:10:53.871Z,1.72
2023-01-30T12:11:53.893Z,2.17
2023-01-30T12:12:53.878Z,0.89
2023-01-30T12:13:53.904Z,-0.17
2023-01-30T12:14:53.883Z,0.17
2023-01-30T12:15:53.877Z,-0.28
2023-01-30T12:16:53.922Z,-0.83
2023-01-30T12:17:53.881Z,-1.28
2023-01-30T12:18:55.620Z,-0.56
2023-01-30T12:19:53.889Z,0
2023-01-30T12:20:53.875Z,-0.28
2023-01-30T12:21:53.885Z,0.72
2023-01-30T12:22:53.884Z,1.5
2023-01-30T12:23:53.885Z,2
2023-01-30T12:24:53.886Z,2.61
2023-01-30T12:25:53.888Z,3.17
2023-01-30T12:26:53.892Z,3.56
2023-01-30T12:27:53.889Z,3.44
2023-01-30T12:28:53.903Z,3.44
2023-01-30T12:29:53.891Z,1.5
2023-01-30T12:30:53.884Z,1.06
2023-01-30T12:31:53.896Z,0.61
2023-01-30T12:32:53.911Z,-0.28
2023-01-30T12:33:53.901Z,-0.17
2023-01-30T12:34:53.887Z,0.17
2023-01-30T12:35:53.897Z,0.89
2023-01-30T12:36:53.896Z,2.28
2023-01-30T12:37:53.890Z,3.33
2023-01-30T12:38:53.881Z,1.5
2023-01-30T12:39:53.907Z,1.33
2023-01-30T12:40:53.901Z,0.89
2023-01-30T12:41:53.890Z,0.89
2023-01-30T12:42:53.896Z,2
2023-01-30T12:43:53.908Z,3.44
2023-01-30T12:44:53.894Z,4
2023-01-30T12:45:53.930Z,4.28
2023-01-30T12:46:53.897Z,2.72
2023-01-30T12:47:53.909Z,0.89
2023-01-30T12:49:08.193Z,0.61
2023-01-30T12:49:53.905Z,0.17
2023-01-30T12:50:53.911Z,1.17
2023-01-30T12:51:53.905Z,1.72
2023-01-30T12:52:53.900Z,2
2023-01-30T12:53:53.897Z,2.44
2023-01-30T12:54:53.889Z,3
2023-01-30T12:55:53.901Z,3
2023-01-30T12:56:53.896Z,1.72
2023-01-30T12:57:53.907Z,1.33